createdAt,value
2022-10-30T00:01:39.506Z,17.78
2022-10-30T00:04:06.395Z,18.57
2022-10-30T00:06:33.208Z,18.61
2022-10-30T00:09:00.105Z,18.46
2022-10-30T00:11:26.958Z,18.07
2022-10-30T00:13:53.790Z,17.52
2022-10-30T00:16:20.670Z,16.77
2022-10-30T00:18:47.541Z,17.06
2022-10-30T00:21:15.716Z,17.85
2022-10-30T00:23:47.443Z,18.37
2022-10-30T00:26:14.798Z,18.18
2022-10-30T00:28:41.766Z,18.09
2022-10-30T00:31:08.846Z,17.79
2022-10-30T00:33:35.700Z,17.27
2022-10-30T00:36:02.548Z,17.17
2022-10-30T00:38:29.377Z,16.57
2022-10-30T00:40:56.272Z,17.66
2022-10-30T00:43:35.711Z,18.19
2022-10-30T00:46:35.795Z,18.10
2022-10-30T00:49:16.666Z,18.37
2022-10-30T00:51:46.861Z,17.98
2022-10-30T00:54:15.706Z,17.92
2022-10-30T00:56:42.822Z,17.88
2022-10-30T00:59:13.256Z,17.87
2022-10-30T01:01:43.293Z,17.46
2022-10-30T01:04:10.819Z,17.26
2022-10-30T01:06:40.440Z,17.66
2022-10-30T01:09:07.381Z,17.67
2022-10-30T01:11:34.267Z,17.09
2022-10-30T01:14:05.176Z,17.31
2022-10-30T01:16:38.022Z,17.70
2022-10-30T01:19:26.986Z,16.82
2022-10-30T01:22:12.272Z,16.73
2022-10-30T01:24:59.241Z,17.41
2022-10-30T01:27:54.659Z,17.49
2022-10-30T01:30:56.152Z,17.91
2022-10-30T01:33:46.329Z,17.56
2022-10-30T01:36:21.579Z,16.67
2022-10-30T01:38:52.842Z,16.75
2022-10-30T01:41:19.776Z,17.50
2022-10-30T01:43:48.200Z,18.13
2022-10-30T01:47:05.701Z,17.72
2022-10-30T01:50:01.554Z,17.34
2022-10-30T01:53:09.366Z,15.99
2022-10-30T01:55:43.033Z,16.13
2022-10-30T01:58:18.807Z,16.29
2022-10-30T02:00:47.752Z,16.65
2022-10-30T02:03:14.899Z,16.80
2022-10-30T02:05:49.024Z,16.88
2022-10-30T02:08:16.102Z,16.99
2022-10-30T02:10:45.071Z,17.08
2022-10-30T02:13:11.948Z,17.80
2022-10-30T02:15:39.178Z,18.59
2022-10-30T02:18:06.152Z,17.70
2022-10-30T02:20:33.060Z,17.67
2022-10-30T02:23:00.060Z,17.49
2022-10-30T02:25:27.090Z,17.63
2022-10-30T02:27:53.989Z,16.34
2022-10-30T02:30:20.824Z,14.01
2022-10-30T02:32:47.691Z,14.85
2022-10-30T02:35:14.593Z,15.47
2022-10-30T02:37:41.474Z,16.07
2022-10-30T02:40:08.959Z,16.69
2022-10-30T02:42:36.201Z,16.90
2022-10-30T02:45:03.195Z,16.97
2022-10-30T02:47:30.031Z,17.39
2022-10-30T02:49:56.971Z,17.65
2022-10-30T02:52:23.839Z,14.73
2022-10-30T02:54:50.703Z,15.75
2022-10-30T02:57:17.588Z,16.68
2022-10-30T02:59:44.438Z,16.68
2022-10-30T03:02:11.343Z,15.89
2022-10-30T03:04:38.328Z,16.36
2022-10-30T03:07:05.191Z,17.12
2022-10-30T03:09:32.056Z,17.43
2022-10-30T03:11:58.910Z,16.65
2022-10-30T03:14:25.918Z,16.27
2022-10-30T03:16:52.894Z,15.64
2022-10-30T03:19:19.991Z,16.94
2022-10-30T03:21:47.320Z,16.96
2022-10-30T03:24:14.301Z,17.14
2022-10-30T03:26:41.246Z,16.81
2022-10-30T03:29:08.081Z,17.20
2022-10-30T03:31:34.926Z,16.28
2022-10-30T03:34:02.224Z,16.10
2022-10-30T03:36:29.099Z,14.74
2022-10-30T03:38:56.753Z,14.13
2022-10-30T03:41:23.610Z,14.53
2022-10-30T03:43:51.131Z,15.20
2022-10-30T03:46:18.020Z,15.79
2022-10-30T03:48:48.432Z,16.13
2022-10-30T03:51:15.329Z,16.32
2022-10-30T03:53:42.174Z,16.46
2022-10-30T03:56:10.270Z,17.54
2022-10-30T03:58:37.128Z,17.92
2022-10-30T04:01:05.728Z,17.18
2022-10-30T04:03:32.897Z,16.52
2022-10-30T04:05:59.841Z,15.77
2022-10-30T04:08:26.794Z,16.13
2022-10-30T04:10:53.742Z,16.12
2022-10-30T04:13:20.702Z,16.45
2022-10-30T04:15:55.967Z,16.04
2022-10-30T04:18:25.123Z,16.49
2022-10-30T04:20:51.988Z,15.11
2022-10-30T04:23:20.258Z,16.18
2022-10-30T04:25:47.287Z,14.96
2022-10-30T04:28:14.494Z,15.30
2022-10-30T04:30:41.499Z,15.89
2022-10-30T04:33:11.650Z,16.10
2022-10-30T04:35:39.016Z,16.51
2022-10-30T04:38:08.264Z,16.60
2022-10-30T04:40:37.415Z,17.00
2022-10-30T04:43:04.763Z,16.74
2022-10-30T04:45:32.272Z,15.34
2022-10-30T04:48:03.767Z,14.51
2022-10-30T04:50:31.877Z,15.02
2022-10-30T04:53:03.459Z,15.19
2022-10-30T04:55:31.016Z,15.20
2022-10-30T04:57:59.575Z,15.96
2022-10-30T05:00:27.601Z,16.21
2022-10-30T05:02:54.530Z,16.27
2022-10-30T05:05:21.771Z,15.85
2022-10-30T05:07:48.676Z,16.30
2022-10-30T05:10:15.859Z,16.14
2022-10-30T05:12:43.755Z,15.88
2022-10-30T05:15:11.381Z,14.51
2022-10-30T05:17:38.412Z,15.08
2022-10-30T05:20:06.519Z,16.03
2022-10-30T05:22:33.625Z,16.34
2022-10-30T05:25:00.530Z,16.87
2022-10-30T05:27:27.399Z,16.62
2022-10-30T05:29:54.329Z,15.96
2022-10-30T05:32:21.208Z,15.73
2022-10-30T05:34:48.051Z,15.94
2022-10-30T05:37:14.948Z,16.33
2022-10-30T05:39:41.802Z,15.93
2022-10-30T05:42:13.570Z,15.78
2022-10-30T05:44:59.843Z,15.19
2022-10-30T05:47:27.703Z,15.43
2022-10-30T05:49:54.562Z,15.64
2022-10-30T05:52:21.477Z,16.55
2022-10-30T05:54:48.298Z,16.66
2022-10-30T05:57:15.125Z,16.93
2022-10-30T05:59:42.025Z,16.44
2022-10-30T06:02:08.988Z,15.55
2022-10-30T06:04:35.922Z,16.33
2022-10-30T06:07:02.801Z,16.17
2022-10-30T06:09:29.684Z,16.94
2022-10-30T06:11:56.806Z,17.84
2022-10-30T06:14:23.676Z,17.22
2022-10-30T06:16:50.567Z,17.26
2022-10-30T06:19:18.873Z,16.64
2022-10-30T06:21:46.690Z,16.47
2022-10-30T06:24:13.974Z,17.27
2022-10-30T06:26:41.218Z,17.14
2022-10-30T06:29:08.064Z,16.73
2022-10-30T06:31:34.942Z,17.40
2022-10-30T06:34:01.891Z,17.77
2022-10-30T06:36:28.750Z,18.07
2022-10-30T06:38:55.639Z,17.53
2022-10-30T06:41:26.169Z,17.63
2022-10-30T06:43:56.060Z,17.43
2022-10-30T06:46:25.684Z,18.33
2022-10-30T06:48:55.887Z,17.86
2022-10-30T06:51:22.839Z,18.59
2022-10-30T06:53:49.703Z,17.74
2022-10-30T06:56:16.575Z,18.65
2022-10-30T06:58:43.962Z,17.85
2022-10-30T07:01:11.305Z,16.81
2022-10-30T07:03:38.186Z,17.49
2022-10-30T07:06:05.161Z,18.58
2022-10-30T07:08:32.828Z,17.81
2022-10-30T07:10:59.723Z,17.45
2022-10-30T07:13:26.577Z,16.57
2022-10-30T07:15:53.450Z,18.33
2022-10-30T07:18:20.300Z,17.12
2022-10-30T07:20:47.177Z,18.21
2022-10-30T07:23:14.086Z,18.75
2022-10-30T07:25:40.980Z,19.15
2022-10-30T07:28:07.814Z,18.15
2022-10-30T07:30:34.634Z,18.81
2022-10-30T07:33:05.918Z,18.89
2022-10-30T07:35:34.854Z,16.95
2022-10-30T07:38:05.497Z,17.28
2022-10-30T07:40:33.307Z,17.86
2022-10-30T07:43:02.269Z,17.80
2022-10-30T07:45:29.643Z,18.32
2022-10-30T07:47:57.160Z,18.09
2022-10-30T07:50:24.796Z,18.49
2022-10-30T07:52:51.694Z,19.58
2022-10-30T07:55:18.591Z,19.65
2022-10-30T07:57:45.406Z,18.76
2022-10-30T08:00:14.165Z,18.84
2022-10-30T08:02:41.401Z,18.69
2022-10-30T08:05:09.176Z,18.20
2022-10-30T08:07:37.997Z,16.32
2022-10-30T08:10:06.000Z,17.04
2022-10-30T08:12:33.985Z,17.03
2022-10-30T08:15:01.158Z,16.78
2022-10-30T08:17:28.722Z,17.44
2022-10-30T08:19:57.322Z,17.58
2022-10-30T08:22:24.434Z,18.19
2022-10-30T08:24:51.402Z,18.87
2022-10-30T08:27:18.396Z,18.79
2022-10-30T08:29:45.225Z,19.38
2022-10-30T08:32:12.189Z,17.69
2022-10-30T08:34:39.076Z,17.95
2022-10-30T08:37:08.102Z,18.10
2022-10-30T08:39:35.156Z,17.76
2022-10-30T08:42:02.044Z,17.22
2022-10-30T08:44:28.896Z,18.56
2022-10-30T08:46:55.760Z,17.57
2022-10-30T08:49:22.579Z,17.57
2022-10-30T08:51:49.443Z,18.09
2022-10-30T08:54:16.324Z,16.85
2022-10-30T08:56:43.189Z,17.21
2022-10-30T08:59:10.095Z,18.04
2022-10-30T09:01:37.021Z,18.64
2022-10-30T09:04:04.412Z,18.78
2022-10-30T09:06:32.037Z,17.47
2022-10-30T09:08:58.981Z,17.31
2022-10-30T09:11:25.870Z,16.73
2022-10-30T09:13:52.779Z,16.03
2022-10-30T09:16:19.935Z,16.96
2022-10-30T09:18:46.812Z,16.75
2022-10-30T09:21:13.690Z,16.77
2022-10-30T09:23:42.326Z,17.42
2022-10-30T09:26:09.854Z,16.18
2022-10-30T09:28:36.697Z,16.15
2022-10-30T09:31:03.678Z,16.65
2022-10-30T09:33:30.615Z,16.92
2022-10-30T09:35:57.505Z,17.15
2022-10-30T09:38:24.464Z,17.19
2022-10-30T09:41:22.359Z,17.49
2022-10-30T09:44:26.297Z,18.61
2022-10-30T09:47:08.872Z,18.49
2022-10-30T09:49:57.225Z,18.76
2022-10-30T09:52:49.102Z,20.47
2022-10-30T09:55:34.261Z,19.85
2022-10-30T09:58:31.243Z,20.29
2022-10-30T10:01:14.184Z,20.59
2022-10-30T10:04:15.157Z,20.93
2022-10-30T10:06:44.505Z,20.57
2022-10-30T10:09:20.440Z,21.29
2022-10-30T10:12:05.929Z,21.45
2022-10-30T10:14:36.373Z,20.76
2022-10-30T10:17:05.168Z,19.32
2022-10-30T10:19:43.601Z,21.14
2022-10-30T10:22:19.537Z,20.68
2022-10-30T10:24:47.785Z,21.20
2022-10-30T10:27:44.961Z,21.42
2022-10-30T10:30:16.112Z,22.59
2022-10-30T10:33:15.915Z,21.97
2022-10-30T10:35:51.759Z,22.02
2022-10-30T10:38:27.650Z,23.05
2022-10-30T10:41:19.425Z,23.58
2022-10-30T10:44:20.328Z,23.26
2022-10-30T10:47:10.051Z,22.73
2022-10-30T10:50:04.093Z,22.51
2022-10-30T10:52:43.145Z,23.04
2022-10-30T10:55:37.271Z,22.16
2022-10-30T10:58:14.712Z,22.35
2022-10-30T11:00:41.755Z,23.14
2022-10-30T11:03:23.839Z,23.12
2022-10-30T11:06:12.318Z,22.87
2022-10-30T11:08:39.368Z,23.92
2022-10-30T11:11:07.369Z,23.80
2022-10-30T11:13:37.987Z,23.37
2022-10-30T11:16:17.238Z,22.91
2022-10-30T11:18:44.648Z,22.79
2022-10-30T11:21:19.023Z,23.01
2022-10-30T11:23:47.712Z,23.01
2022-10-30T11:26:17.678Z,22.52
2022-10-30T11:29:00.051Z,22.06
2022-10-30T11:31:34.396Z,21.72
2022-10-30T11:34:14.301Z,21.61
2022-10-30T11:36:41.530Z,21.94
2022-10-30T11:39:17.182Z,21.99
2022-10-30T11:41:51.864Z,21.89
2022-10-30T11:44:22.980Z,22.44
2022-10-30T11:46:49.863Z,21.62
2022-10-30T11:49:46.658Z,22.34
2022-10-30T11:52:16.198Z,21.47
2022-10-30T11:54:53.504Z,21.93
2022-10-30T11:57:28.672Z,22.15
2022-10-30T12:00:00.624Z,21.54
2022-10-30T12:02:40.937Z,21.98
2022-10-30T12:05:27.664Z,22.20
2022-10-30T12:07:56.124Z,22.21
2022-10-30T12:10:28.241Z,22.41
2022-10-30T12:12:55.245Z,22.56
2022-10-30T12:15:25.502Z,22.39
2022-10-30T12:17:59.839Z,21.84
2022-10-30T12:20:27.442Z,21.76
2022-10-30T12:22:54.801Z,21.81
2022-10-30T12:25:24.697Z,22.49
2022-10-30T12:27:59.490Z,22.33
2022-10-30T12:30:26.658Z,22.04
2022-10-30T12:33:01.420Z,21.79
2022-10-30T12:35:54.719Z,21.94
2022-10-30T12:38:28.827Z,22.08
2022-10-30T12:41:13.050Z,22.06
2022-10-30T12:43:41.429Z,22.02
2022-10-30T12:46:43.063Z,21.41
2022-10-30T12:49:36.146Z,20.96
2022-10-30T12:52:11.405Z,21.34
2022-10-30T12:55:09.785Z,20.95
2022-10-30T12:57:39.237Z,20.98
2022-10-30T13:00:16.548Z,21.13
2022-10-30T13:03:00.975Z,21.08
2022-10-30T13:05:40.089Z,21.69
2022-10-30T13:08:06.957Z,21.74
2022-10-30T13:10:39.560Z,21.64
2022-10-30T13:13:15.598Z,21.49
2022-10-30T13:15:54.566Z,21.63
2022-10-30T13:18:23.470Z,21.85
2022-10-30T13:20:58.917Z,21.66
2022-10-30T13:23:45.546Z,21.37
2022-10-30T13:26:35.937Z,21.32
2022-10-30T13:29:12.482Z,21.17
2022-10-30T13:32:13.198Z,21.27
2022-10-30T13:35:18.801Z,21.30
2022-10-30T13:38:12.712Z,20.91
2022-10-30T13:40:47.416Z,21.05
2022-10-30T13:43:42.707Z,20.97
2022-10-30T13:46:34.996Z,21.31
2022-10-30T13:49:32.393Z,20.95
2022-10-30T13:52:09.031Z,21.78
2022-10-30T13:54:45.403Z,21.82
2022-10-30T13:57:33.020Z,21.63
2022-10-30T14:00:18.478Z,21.64
2022-10-30T14:03:06.952Z,20.95
2022-10-30T14:06:05.915Z,20.51
2022-10-30T14:08:40.356Z,20.50
2022-10-30T14:11:08.069Z,20.60
2022-10-30T14:13:56.967Z,20.80
2022-10-30T14:16:42.429Z,21.37
2022-10-30T14:19:13.095Z,21.78
2022-10-30T14:21:44.047Z,21.47
2022-10-30T14:24:29.828Z,21.55
2022-10-30T14:27:06.044Z,21.70
2022-10-30T14:29:36.048Z,21.61
2022-10-30T14:32:22.759Z,21.72
2022-10-30T14:34:54.830Z,21.64
2022-10-30T14:37:24.444Z,21.67
2022-10-30T14:39:52.165Z,22.48
2022-10-30T14:42:41.699Z,22.23
2022-10-30T14:45:25.234Z,21.64
2022-10-30T14:48:07.715Z,21.79
2022-10-30T14:50:34.511Z,21.76
2022-10-30T14:53:17.466Z,21.66
2022-10-30T14:56:02.998Z,21.51
2022-10-30T14:58:33.381Z,19.59
2022-10-30T15:01:09.455Z,18.82
2022-10-30T15:04:04.299Z,18.91
2022-10-30T15:06:36.980Z,18.62
2022-10-30T15:09:22.517Z,18.39
2022-10-30T15:12:06.749Z,19.04
2022-10-30T15:14:53.816Z,18.38
2022-10-30T15:17:26.476Z,18.81
2022-10-30T15:19:53.326Z,18.17
2022-10-30T15:22:21.733Z,17.64
2022-10-30T15:24:50.433Z,17.81
2022-10-30T15:27:21.772Z,18.28
2022-10-30T15:29:55.667Z,18.53
2022-10-30T15:32:24.463Z,17.92
2022-10-30T15:35:03.140Z,17.69
2022-10-30T15:37:30.586Z,17.97
2022-10-30T15:40:30.313Z,18.43
2022-10-30T15:42:59.147Z,19.45
2022-10-30T15:45:30.147Z,19.39
2022-10-30T15:48:06.532Z,19.05
2022-10-30T15:50:40.312Z,19.51
2022-10-30T15:53:14.422Z,19.44
2022-10-30T15:55:41.416Z,18.94
2022-10-30T15:58:08.297Z,19.59
2022-10-30T16:00:37.332Z,18.36
2022-10-30T16:03:17.302Z,18.30
2022-10-30T16:05:44.557Z,18.33
2022-10-30T16:08:23.111Z,17.62
2022-10-30T16:10:53.076Z,16.77
2022-10-30T16:13:30.317Z,17.00
2022-10-30T16:15:56.992Z,16.70
2022-10-30T16:18:26.634Z,16.77
2022-10-30T16:20:57.150Z,16.59
2022-10-30T16:23:24.900Z,17.10
2022-10-30T16:25:56.617Z,17.00
2022-10-30T16:28:30.292Z,17.21
2022-10-30T16:31:03.016Z,17.45
2022-10-30T16:33:31.257Z,17.25
2022-10-30T16:35:58.547Z,17.44
2022-10-30T16:38:28.802Z,17.24
2022-10-30T16:40:56.533Z,16.66
2022-10-30T16:43:32.118Z,17.19
2022-10-30T16:46:21.609Z,17.12
2022-10-30T16:49:00.272Z,16.62
2022-10-30T16:51:27.613Z,17.00
2022-10-30T16:53:54.481Z,17.44
2022-10-30T16:56:24.837Z,17.96
2022-10-30T16:58:53.134Z,18.53
2022-10-30T17:01:24.822Z,18.27
2022-10-30T17:03:52.294Z,18.61
2022-10-30T17:06:41.200Z,19.72
2022-10-30T17:09:10.433Z,19.04
2022-10-30T17:11:42.209Z,18.92
2022-10-30T17:14:20.951Z,19.08
2022-10-30T17:16:56.460Z,19.20
2022-10-30T17:19:32.554Z,19.29
2022-10-30T17:22:06.928Z,18.86
2022-10-30T17:24:35.901Z,19.39
2022-10-30T17:27:05.688Z,19.02
2022-10-30T17:29:38.742Z,19.95
2022-10-30T17:32:07.111Z,20.40
2022-10-30T17:34:39.821Z,20.52
2022-10-30T17:37:06.659Z,19.48
2022-10-30T17:39:33.505Z,19.34
2022-10-30T17:42:00.345Z,19.50
2022-10-30T17:44:27.864Z,19.86
2022-10-30T17:46:54.798Z,19.85
2022-10-30T17:49:32.366Z,19.54
2022-10-30T17:52:00.064Z,19.31
2022-10-30T17:54:27.085Z,19.59
2022-10-30T17:56:54.256Z,20.44
2022-10-30T17:59:21.142Z,19.75
2022-10-30T18:01:49.246Z,19.30
2022-10-30T18:04:20.623Z,18.43
2022-10-30T18:06:48.369Z,19.04
2022-10-30T18:09:15.264Z,19.16
2022-10-30T18:11:42.127Z,19.26
2022-10-30T18:14:12.208Z,19.51
2022-10-30T18:16:39.510Z,19.93
2022-10-30T18:19:10.105Z,19.94
2022-10-30T18:21:37.127Z,19.57
2022-10-30T18:24:10.225Z,19.07
2022-10-30T18:26:40.469Z,19.13
2022-10-30T18:29:08.655Z,19.82
2022-10-30T18:31:35.785Z,18.96
2022-10-30T18:34:02.643Z,19.26
2022-10-30T18:36:29.527Z,19.49
2022-10-30T18:38:57.758Z,19.46
2022-10-30T18:41:38.520Z,19.15
2022-10-30T18:44:05.576Z,18.73
2022-10-30T18:46:33.732Z,19.11
2022-10-30T18:49:00.719Z,19.16
2022-10-30T18:51:28.257Z,19.79
2022-10-30T18:53:57.138Z,19.67
2022-10-30T18:56:29.391Z,19.70
2022-10-30T18:59:00.764Z,19.81
2022-10-30T19:01:30.933Z,19.87
2022-10-30T19:04:01.078Z,19.81
2022-10-30T19:06:28.650Z,19.88
2022-10-30T19:08:55.619Z,19.41
2022-10-30T19:11:25.098Z,19.55
2022-10-30T19:13:53.887Z,19.41
2022-10-30T19:16:21.889Z,19.53
2022-10-30T19:18:49.011Z,20.41
2022-10-30T19:21:17.994Z,20.23
2022-10-30T19:23:44.861Z,19.69
2022-10-30T19:26:14.712Z,20.22
2022-10-30T19:28:41.923Z,19.60
2022-10-30T19:31:14.432Z,20.34
2022-10-30T19:33:41.683Z,19.75
2022-10-30T19:36:44.319Z,19.81
2022-10-30T19:39:13.585Z,19.70
2022-10-30T19:41:41.398Z,18.84
2022-10-30T19:44:08.758Z,18.02
2022-10-30T19:46:36.537Z,18.84
2022-10-30T19:49:19.970Z,18.85
2022-10-30T19:51:47.305Z,18.46
2022-10-30T19:54:14.315Z,18.36
2022-10-30T19:56:43.612Z,18.72
2022-10-30T19:59:14.427Z,18.11
2022-10-30T20:01:41.840Z,18.71
2022-10-30T20:04:08.979Z,19.01
2022-10-30T20:06:35.910Z,18.93
2022-10-30T20:09:02.796Z,18.70
2022-10-30T20:11:30.291Z,18.05
2022-10-30T20:13:57.223Z,18.31
2022-10-30T20:16:24.161Z,18.08
2022-10-30T20:18:51.013Z,17.24
2022-10-30T20:21:17.897Z,17.06
2022-10-30T20:23:46.176Z,17.52
2022-10-30T20:26:30.875Z,17.57
2022-10-30T20:28:58.279Z,17.40
2022-10-30T20:31:25.301Z,17.76
2022-10-30T20:33:52.126Z,17.26
2022-10-30T20:36:19.058Z,17.46
2022-10-30T20:38:45.919Z,18.04
2022-10-30T20:41:22.271Z,17.85
2022-10-30T20:43:50.681Z,17.09
2022-10-30T20:46:18.466Z,17.72
2022-10-30T20:48:45.340Z,16.62
2022-10-30T20:51:12.335Z,17.17
2022-10-30T20:53:39.188Z,17.10
2022-10-30T20:56:06.422Z,17.11
2022-10-30T20:58:33.265Z,17.95
2022-10-30T21:01:00.203Z,18.59
2022-10-30T21:03:27.679Z,17.96
2022-10-30T21:05:59.780Z,18.04
2022-10-30T21:08:28.153Z,18.73
2022-10-30T21:10:59.874Z,18.39
2022-10-30T21:13:27.801Z,18.25
2022-10-30T21:15:54.970Z,17.86
2022-10-30T21:18:21.814Z,17.87
2022-10-30T21:20:48.633Z,17.82
2022-10-30T21:23:15.503Z,17.88
2022-10-30T21:25:42.373Z,18.14
2022-10-30T21:28:09.182Z,18.92
2022-10-30T21:30:36.195Z,19.19
2022-10-30T21:33:03.479Z,18.71
2022-10-30T21:35:30.730Z,18.64
2022-10-30T21:37:57.592Z,18.38
2022-10-30T21:40:24.532Z,17.79
2022-10-30T21:42:51.374Z,18.23
2022-10-30T21:45:18.271Z,18.19
2022-10-30T21:47:45.121Z,18.26
2022-10-30T21:50:12.891Z,17.95
2022-10-30T21:52:40.598Z,17.87
2022-10-30T21:55:08.343Z,17.55
2022-10-30T21:57:35.356Z,17.51
2022-10-30T22:00:05.812Z,17.75
2022-10-30T22:02:34.595Z,17.34
2022-10-30T22:05:01.499Z,17.46
2022-10-30T22:07:28.499Z,17.85
2022-10-30T22:09:55.326Z,18.06
2022-10-30T22:12:22.191Z,17.62
2022-10-30T22:14:49.091Z,17.54
2022-10-30T22:17:15.994Z,17.25
2022-10-30T22:19:42.846Z,17.28
2022-10-30T22:22:11.367Z,17.88
2022-10-30T22:24:38.415Z,17.93
2022-10-30T22:27:05.238Z,17.74
2022-10-30T22:29:32.137Z,18.14
2022-10-30T22:31:58.957Z,18.82
2022-10-30T22:34:25.802Z,18.12
2022-10-30T22:36:52.648Z,17.71
2022-10-30T22:39:19.869Z,18.24
2022-10-30T22:41:46.713Z,18.34
2022-10-30T22:44:15.139Z,18.52
2022-10-30T22:46:42.114Z,18.46
2022-10-30T22:49:08.987Z,17.59
2022-10-30T22:51:37.480Z,17.55
2022-10-30T22:54:06.821Z,18.38
2022-10-30T22:56:35.333Z,17.95
2022-10-30T22:59:04.921Z,17.59
2022-10-30T23:01:33.506Z,17.33
2022-10-30T23:04:01.654Z,17.55
2022-10-30T23:06:30.203Z,17.99
2022-10-30T23:08:59.175Z,18.28
2022-10-30T23:11:29.125Z,18.57
2022-10-30T23:13:56.690Z,18.05
2022-10-30T23:16:25.565Z,18.12
2022-10-30T23:18:55.087Z,17.94
2022-10-30T23:21:23.713Z,17.26
2022-10-30T23:23:50.680Z,16.85
2022-10-30T23:26:25.745Z,17.30
2022-10-30T23:28:54.086Z,18.11
2022-10-30T23:31:31.008Z,18.06
2022-10-30T23:34:00.201Z,17.31
2022-10-30T23:36:27.591Z,16.91
2022-10-30T23:38:55.899Z,18.01
2022-10-30T23:41:24.708Z,17.54
2022-10-30T23:43:58.113Z,17.32
2022-10-30T23:46:25.301Z,17.50
2022-10-30T23:48:52.194Z,18.20
2022-10-30T23:51:20.605Z,18.39
2022-10-30T23:53:47.887Z,17.96
2022-10-30T23:56:14.933Z,17.30
2022-10-30T23:58:45.761Z,17.26
